sensor_id;sensor_type;location;lat;lon;timestamp;P1;durP1;ratioP1;P2;durP2;ratioP2
14526;SDS011;7350;51.208;4.238;2023-02-13T00:00:20;11.18;;;10.18;;
14526;SDS011;7350;51.208;4.238;2023-02-13T00:02:49;11.38;;;10.38;;
14526;SDS011;7350;51.208;4.238;2023-02-13T00:05:16;11.57;;;10.57;;
14526;SDS011;7350;51.208;4.238;2023-02-13T00:07:43;11.20;;;10.20;;
14526;SDS011;7350;51.208;4.238;2023-02-13T00:10:11;11.73;;;10.63;;
14526;SDS011;7350;51.208;4.238;2023-02-13T00:12:38;11.57;;;10.48;;
14526;SDS011;7350;51.208;4.238;2023-02-13T00:15:05;12.15;;;10.95;;
14526;SDS011;7350;51.208;4.238;2023-02-13T00:17:34;11.65;;;10.65;;
14526;SDS011;7350;51.208;4.238;2023-02-13T00:20:01;11.65;;;10.63;;
14526;SDS011;7350;51.208;4.238;2023-02-13T00:22:29;11.65;;;10.65;;
14526;SDS011;7350;51.208;4.238;2023-02-13T00:24:59;12.00;;;10.93;;
14526;SDS011;7350;51.208;4.238;2023-02-13T00:27:26;12.35;;;11.15;;
14526;SDS011;7350;51.208;4.238;2023-02-13T00:29:53;11.15;;;10.10;;
14526;SDS011;7350;51.208;4.238;2023-02-13T00:32:20;11.77;;;10.57;;
14526;SDS011;7350;51.208;4.238;2023-02-13T00:34:49;11.80;;;10.70;;
14526;SDS011;7350;51.208;4.238;2023-02-13T00:37:16;11.63;;;10.48;;
14526;SDS011;7350;51.208;4.238;2023-02-13T00:39:43;11.88;;;10.77;;
14526;SDS011;7350;51.208;4.238;2023-02-13T00:42:10;12.23;;;11.10;;
14526;SDS011;7350;51.208;4.238;2023-02-13T00:44:37;12.43;;;11.23;;
14526;SDS011;7350;51.208;4.238;2023-02-13T00:47:04;11.75;;;10.65;;
14526;SDS011;7350;51.208;4.238;2023-02-13T00:49:30;12.20;;;11.00;;
14526;SDS011;7350;51.208;4.238;2023-02-13T00:51:59;12.07;;;10.98;;
14526;SDS011;7350;51.208;4.238;2023-02-13T00:54:26;11.98;;;10.88;;
14526;SDS011;7350;51.208;4.238;2023-02-13T00:56:53;12.02;;;10.93;;
14526;SDS011;7350;51.208;4.238;2023-02-13T00:59:20;12.05;;;10.95;;
14526;SDS011;7350;51.208;4.238;2023-02-13T01:01:47;13.00;;;11.70;;
14526;SDS011;7350;51.208;4.238;2023-02-13T01:04:14;12.30;;;11.20;;
14526;SDS011;7350;51.208;4.238;2023-02-13T01:06:41;12.73;;;11.52;;
14526;SDS011;7350;51.208;4.238;2023-02-13T01:09:09;12.75;;;11.45;;
14526;SDS011;7350;51.208;4.238;2023-02-13T01:11:36;13.18;;;11.98;;
14526;SDS011;7350;51.208;4.238;2023-02-13T01:14:03;12.68;;;11.55;;
14526;SDS011;7350;51.208;4.238;2023-02-13T01:16:30;12.45;;;11.32;;
14526;SDS011;7350;51.208;4.238;2023-02-13T01:18:57;13.40;;;12.10;;
14526;SDS011;7350;51.208;4.238;2023-02-13T01:21:24;11.77;;;10.70;;
14526;SDS011;7350;51.208;4.238;2023-02-13T01:23:51;13.00;;;11.77;;
14526;SDS011;7350;51.208;4.238;2023-02-13T01:26:20;13.05;;;11.80;;
14526;SDS011;7350;51.208;4.238;2023-02-13T01:28:50;12.82;;;11.52;;
14526;SDS011;7350;51.208;4.238;2023-02-13T01:31:18;13.98;;;12.65;;
14526;SDS011;7350;51.208;4.238;2023-02-13T01:33:45;12.98;;;11.52;;
14526;SDS011;7350;51.208;4.238;2023-02-13T01:36:12;12.93;;;11.68;;
14526;SDS011;7350;51.208;4.238;2023-02-13T01:38:39;12.60;;;11.38;;
14526;SDS011;7350;51.208;4.238;2023-02-13T01:41:07;13.95;;;12.30;;
14526;SDS011;7350;51.208;4.238;2023-02-13T01:43:46;13.38;;;12.07;;
14526;SDS011;7350;51.208;4.238;2023-02-13T01:46:18;12.85;;;11.75;;
14526;SDS011;7350;51.208;4.238;2023-02-13T01:48:48;13.20;;;12.00;;
14526;SDS011;7350;51.208;4.238;2023-02-13T01:51:19;13.30;;;12.05;;
14526;SDS011;7350;51.208;4.238;2023-02-13T01:53:52;13.38;;;12.13;;
14526;SDS011;7350;51.208;4.238;2023-02-13T01:56:24;13.23;;;12.02;;
14526;SDS011;7350;51.208;4.238;2023-02-13T01:58:57;13.20;;;11.90;;
14526;SDS011;7350;51.208;4.238;2023-02-13T02:01:27;12.88;;;11.63;;
14526;SDS011;7350;51.208;4.238;2023-02-13T02:03:58;13.63;;;12.32;;
14526;SDS011;7350;51.208;4.238;2023-02-13T02:06:33;13.27;;;11.98;;
14526;SDS011;7350;51.208;4.238;2023-02-13T02:09:07;13.35;;;12.05;;
14526;SDS011;7350;51.208;4.238;2023-02-13T02:11:38;14.23;;;12.82;;
14526;SDS011;7350;51.208;4.238;2023-02-13T02:14:13;12.98;;;11.77;;
14526;SDS011;7350;51.208;4.238;2023-02-13T02:16:40;13.38;;;12.07;;
14526;SDS011;7350;51.208;4.238;2023-02-13T02:19:08;13.57;;;12.30;;
14526;SDS011;7350;51.208;4.238;2023-02-13T02:21:44;13.50;;;12.20;;
14526;SDS011;7350;51.208;4.238;2023-02-13T02:24:30;12.90;;;11.70;;
14526;SDS011;7350;51.208;4.238;2023-02-13T02:27:25;14.57;;;13.18;;
14526;SDS011;7350;51.208;4.238;2023-02-13T02:33:09;14.73;;;13.32;;
14526;SDS011;7350;51.208;4.238;2023-02-13T02:35:45;14.32;;;12.95;;
14526;SDS011;7350;51.208;4.238;2023-02-13T02:38:24;14.38;;;12.85;;
14526;SDS011;7350;51.208;4.238;2023-02-13T02:41:03;14.88;;;13.48;;
14526;SDS011;7350;51.208;4.238;2023-02-13T02:43:44;13.48;;;12.23;;
14526;SDS011;7350;51.208;4.238;2023-02-13T02:46:30;13.90;;;12.70;;
14526;SDS011;7350;51.208;4.238;2023-02-13T02:49:03;14.13;;;12.73;;
14526;SDS011;7350;51.208;4.238;2023-02-13T02:51:54;15.35;;;13.48;;
14526;SDS011;7350;51.208;4.238;2023-02-13T02:54:31;14.25;;;12.90;;
14526;SDS011;7350;51.208;4.238;2023-02-13T02:57:26;14.63;;;13.13;;
14526;SDS011;7350;51.208;4.238;2023-02-13T03:00:15;14.77;;;12.88;;
14526;SDS011;7350;51.208;4.238;2023-02-13T03:03:02;14.50;;;13.10;;
14526;SDS011;7350;51.208;4.238;2023-02-13T03:05:53;15.45;;;13.85;;
14526;SDS011;7350;51.208;4.238;2023-02-13T03:08:36;14.35;;;12.98;;
14526;SDS011;7350;51.208;4.238;2023-02-13T03:11:21;14.85;;;13.45;;
14526;SDS011;7350;51.208;4.238;2023-02-13T03:14:06;14.40;;;13.07;;
14526;SDS011;7350;51.208;4.238;2023-02-13T03:16:35;14.35;;;12.95;;
14526;SDS011;7350;51.208;4.238;2023-02-13T03:19:21;14.95;;;13.50;;
14526;SDS011;7350;51.208;4.238;2023-02-13T03:22:16;14.20;;;12.77;;
14526;SDS011;7350;51.208;4.238;2023-02-13T03:24:57;15.27;;;13.80;;
14526;SDS011;7350;51.208;4.238;2023-02-13T03:27:33;15.38;;;13.77;;
14526;SDS011;7350;51.208;4.238;2023-02-13T03:30:29;15.20;;;13.70;;
14526;SDS011;7350;51.208;4.238;2023-02-13T03:33:08;15.32;;;13.90;;
14526;SDS011;7350;51.208;4.238;2023-02-13T03:35:44;14.65;;;13.15;;
14526;SDS011;7350;51.208;4.238;2023-02-13T03:38:38;14.95;;;13.40;;
14526;SDS011;7350;51.208;4.238;2023-02-13T03:41:12;14.60;;;13.10;;
14526;SDS011;7350;51.208;4.238;2023-02-13T03:43:46;15.02;;;13.52;;
14526;SDS011;7350;51.208;4.238;2023-02-13T03:46:23;15.63;;;14.13;;
14526;SDS011;7350;51.208;4.238;2023-02-13T03:48:52;15.50;;;14.00;;
14526;SDS011;7350;51.208;4.238;2023-02-13T03:51:38;15.32;;;13.82;;
14526;SDS011;7350;51.208;4.238;2023-02-13T03:54:11;16.10;;;14.48;;
14526;SDS011;7350;51.208;4.238;2023-02-13T03:56:42;14.95;;;13.55;;
14526;SDS011;7350;51.208;4.238;2023-02-13T03:59:29;15.57;;;14.02;;
14526;SDS011;7350;51.208;4.238;2023-02-13T04:02:00;15.88;;;13.95;;
14526;SDS011;7350;51.208;4.238;2023-02-13T04:04:34;14.07;;;12.73;;
14526;SDS011;7350;51.208;4.238;2023-02-13T04:07:11;14.85;;;13.45;;
14526;SDS011;7350;51.208;4.238;2023-02-13T04:09:54;15.48;;;13.90;;
14526;SDS011;7350;51.208;4.238;2023-02-13T04:12:25;15.82;;;14.30;;
14526;SDS011;7350;51.208;4.238;2023-02-13T04:15:01;14.48;;;13.02;;
14526;SDS011;7350;51.208;4.238;2023-02-13T04:17:35;14.90;;;13.40;;
14526;SDS011;7350;51.208;4.238;2023-02-13T04:20:06;15.48;;;13.90;;
14526;SDS011;7350;51.208;4.238;2023-02-13T04:22:34;15.13;;;13.63;;
14526;SDS011;7350;51.208;4.238;2023-02-13T04:25:08;14.98;;;13.48;;
14526;SDS011;7350;51.208;4.238;2023-02-13T04:27:36;16.17;;;14.20;;
14526;SDS011;7350;51.208;4.238;2023-02-13T04:30:04;14.48;;;13.07;;
14526;SDS011;7350;51.208;4.238;2023-02-13T04:32:32;14.52;;;13.02;;
14526;SDS011;7350;51.208;4.238;2023-02-13T04:34:59;15.27;;;13.77;;
14526;SDS011;7350;51.208;4.238;2023-02-13T04:37:26;14.90;;;13.35;;
14526;SDS011;7350;51.208;4.238;2023-02-13T04:39:53;15.38;;;13.82;;
14526;SDS011;7350;51.208;4.238;2023-02-13T04:42:21;15.02;;;13.63;;
14526;SDS011;7350;51.208;4.238;2023-02-13T04:44:48;15.15;;;13.70;;
14526;SDS011;7350;51.208;4.238;2023-02-13T04:47:15;15.30;;;13.82;;
14526;SDS011;7350;51.208;4.238;2023-02-13T04:49:42;16.27;;;14.77;;
14526;SDS011;7350;51.208;4.238;2023-02-13T04:52:09;16.13;;;14.60;;
14526;SDS011;7350;51.208;4.238;2023-02-13T04:54:36;15.50;;;13.90;;
14526;SDS011;7350;51.208;4.238;2023-02-13T04:57:03;15.55;;;13.98;;
14526;SDS011;7350;51.208;4.238;2023-02-13T04:59:31;14.68;;;13.18;;
14526;SDS011;7350;51.208;4.238;2023-02-13T05:01:58;16.23;;;14.52;;
14526;SDS011;7350;51.208;4.238;2023-02-13T05:04:25;17.10;;;15.40;;
14526;SDS011;7350;51.208;4.238;2023-02-13T05:06:52;15.23;;;13.82;;
14526;SDS011;7350;51.208;4.238;2023-02-13T05:09:19;14.95;;;13.48;;
14526;SDS011;7350;51.208;4.238;2023-02-13T05:11:47;13.93;;;12.52;;
14526;SDS011;7350;51.208;4.238;2023-02-13T05:14:16;13.25;;;12.02;;
14526;SDS011;7350;51.208;4.238;2023-02-13T05:16:45;12.73;;;11.45;;
14526;SDS011;7350;51.208;4.238;2023-02-13T05:19:14;12.90;;;11.60;;
14526;SDS011;7350;51.208;4.238;2023-02-13T05:21:41;14.10;;;12.70;;
14526;SDS011;7350;51.208;4.238;2023-02-13T05:24:26;13.40;;;11.82;;
14526;SDS011;7350;51.208;4.238;2023-02-13T05:26:53;14.43;;;11.57;;
14526;SDS011;7350;51.208;4.238;2023-02-13T05:29:20;11.93;;;10.73;;
14526;SDS011;7350;51.208;4.238;2023-02-13T05:31:49;12.95;;;11.65;;
14526;SDS011;7350;51.208;4.238;2023-02-13T05:34:17;11.52;;;10.43;;
14526;SDS011;7350;51.208;4.238;2023-02-13T05:36:44;12.10;;;10.90;;
14526;SDS011;7350;51.208;4.238;2023-02-13T05:39:12;12.52;;;11.13;;
14526;SDS011;7350;51.208;4.238;2023-02-13T05:41:39;11.85;;;10.73;;
14526;SDS011;7350;51.208;4.238;2023-02-13T05:44:06;12.68;;;10.57;;
14526;SDS011;7350;51.208;4.238;2023-02-13T05:46:33;12.40;;;11.10;;
14526;SDS011;7350;51.208;4.238;2023-02-13T05:49:03;11.88;;;10.00;;
14526;SDS011;7350;51.208;4.238;2023-02-13T05:51:31;11.20;;;10.10;;
14526;SDS011;7350;51.208;4.238;2023-02-13T05:53:58;10.85;;;9.75;;
14526;SDS011;7350;51.208;4.238;2023-02-13T05:56:25;10.93;;;9.63;;
14526;SDS011;7350;51.208;4.238;2023-02-13T05:58:52;10.95;;;9.77;;
14526;SDS011;7350;51.208;4.238;2023-02-13T06:01:21;12.13;;;9.32;;
14526;SDS011;7350;51.208;4.238;2023-02-13T06:03:49;10.40;;;9.38;;
14526;SDS011;7350;51.208;4.238;2023-02-13T06:06:18;10.00;;;8.98;;
14526;SDS011;7350;51.208;4.238;2023-02-13T06:08:45;9.48;;;8.57;;
14526;SDS011;7350;51.208;4.238;2023-02-13T06:11:12;10.32;;;8.95;;
14526;SDS011;7350;51.208;4.238;2023-02-13T06:13:39;10.25;;;9.25;;
14526;SDS011;7350;51.208;4.238;2023-02-13T06:16:06;10.02;;;8.75;;
14526;SDS011;7350;51.208;4.238;2023-02-13T06:18:33;10.40;;;9.02;;
14526;SDS011;7350;51.208;4.238;2023-02-13T06:21:00;8.93;;;8.10;;
14526;SDS011;7350;51.208;4.238;2023-02-13T06:23:30;9.43;;;8.52;;
14526;SDS011;7350;51.208;4.238;2023-02-13T06:26:00;9.73;;;8.75;;
14526;SDS011;7350;51.208;4.238;2023-02-13T06:28:27;10.15;;;9.13;;
14526;SDS011;7350;51.208;4.238;2023-02-13T06:30:54;10.57;;;8.43;;
14526;SDS011;7350;51.208;4.238;2023-02-13T06:33:21;10.70;;;8.93;;
14526;SDS011;7350;51.208;4.238;2023-02-13T06:35:48;10.20;;;9.18;;
14526;SDS011;7350;51.208;4.238;2023-02-13T06:38:15;10.27;;;9.27;;
14526;SDS011;7350;51.208;4.238;2023-02-13T06:40:44;10.60;;;9.38;;
14526;SDS011;7350;51.208;4.238;2023-02-13T06:43:11;10.43;;;9.27;;
14526;SDS011;7350;51.208;4.238;2023-02-13T06:45:38;10.02;;;9.02;;
14526;SDS011;7350;51.208;4.238;2023-02-13T06:48:06;10.30;;;9.30;;
14526;SDS011;7350;51.208;4.238;2023-02-13T06:50:33;9.23;;;8.40;;
14526;SDS011;7350;51.208;4.238;2023-02-13T06:53:00;9.98;;;9.07;;
14526;SDS011;7350;51.208;4.238;2023-02-13T06:55:27;9.75;;;8.75;;
14526;SDS011;7350;51.208;4.238;2023-02-13T06:57:55;9.73;;;8.82;;
14526;SDS011;7350;51.208;4.238;2023-02-13T07:00:23;9.65;;;8.75;;
14526;SDS011;7350;51.208;4.238;2023-02-13T07:02:51;9.80;;;8.90;;
14526;SDS011;7350;51.208;4.238;2023-02-13T07:05:18;9.63;;;8.57;;
14526;SDS011;7350;51.208;4.238;2023-02-13T07:07:45;11.02;;;9.07;;
14526;SDS011;7350;51.208;4.238;2023-02-13T07:10:12;9.65;;;8.77;;
14526;SDS011;7350;51.208;4.238;2023-02-13T07:12:39;10.25;;;9.10;;
14526;SDS011;7350;51.208;4.238;2023-02-13T07:15:08;9.40;;;8.50;;
14526;SDS011;7350;51.208;4.238;2023-02-13T07:17:35;9.27;;;8.38;;
14526;SDS011;7350;51.208;4.238;2023-02-13T07:20:02;9.80;;;8.90;;
14526;SDS011;7350;51.208;4.238;2023-02-13T07:22:30;10.13;;;9.13;;
14526;SDS011;7350;51.208;4.238;2023-02-13T07:24:57;9.80;;;8.80;;
14526;SDS011;7350;51.208;4.238;2023-02-13T07:27:25;10.38;;;9.45;;
14526;SDS011;7350;51.208;4.238;2023-02-13T07:29:53;9.65;;;8.75;;
14526;SDS011;7350;51.208;4.238;2023-02-13T07:32:22;10.05;;;9.18;;
14526;SDS011;7350;51.208;4.238;2023-02-13T07:34:50;10.40;;;9.50;;
14526;SDS011;7350;51.208;4.238;2023-02-13T07:37:17;10.52;;;9.43;;
14526;SDS011;7350;51.208;4.238;2023-02-13T07:39:44;9.85;;;8.60;;
14526;SDS011;7350;51.208;4.238;2023-02-13T07:42:11;9.35;;;8.55;;
14526;SDS011;7350;51.208;4.238;2023-02-13T07:44:38;9.52;;;8.63;;
14526;SDS011;7350;51.208;4.238;2023-02-13T07:47:05;10.23;;;9.23;;
14526;SDS011;7350;51.208;4.238;2023-02-13T07:49:33;9.50;;;8.48;;
14526;SDS011;7350;51.208;4.238;2023-02-13T07:52:01;9.07;;;8.18;;
14526;SDS011;7350;51.208;4.238;2023-02-13T07:54:28;9.73;;;8.82;;
14526;SDS011;7350;51.208;4.238;2023-02-13T07:56:55;9.55;;;8.65;;
14526;SDS011;7350;51.208;4.238;2023-02-13T07:59:23;9.68;;;8.77;;
14526;SDS011;7350;51.208;4.238;2023-02-13T08:01:50;9.95;;;8.95;;
14526;SDS011;7350;51.208;4.238;2023-02-13T08:04:17;9.02;;;8.00;;
14526;SDS011;7350;51.208;4.238;2023-02-13T08:06:45;8.57;;;7.78;;
14526;SDS011;7350;51.208;4.238;2023-02-13T08:09:16;9.02;;;8.13;;
14526;SDS011;7350;51.208;4.238;2023-02-13T08:12:03;9.32;;;8.52;;
14526;SDS011;7350;51.208;4.238;2023-02-13T08:14:32;8.38;;;7.68;;
14526;SDS011;7350;51.208;4.238;2023-02-13T08:16:59;9.70;;;8.18;;
14526;SDS011;7350;51.208;4.238;2023-02-13T08:19:26;8.95;;;7.88;;
14526;SDS011;7350;51.208;4.238;2023-02-13T08:21:55;8.80;;;8.00;;
14526;SDS011;7350;51.208;4.238;2023-02-13T08:24:22;8.60;;;7.80;;
14526;SDS011;7350;51.208;4.238;2023-02-13T08:26:49;8.18;;;7.47;;
14526;SDS011;7350;51.208;4.238;2023-02-13T08:29:16;8.52;;;7.65;;
14526;SDS011;7350;51.208;4.238;2023-02-13T08:31:43;8.38;;;7.60;;
14526;SDS011;7350;51.208;4.238;2023-02-13T08:34:10;8.25;;;7.50;;
14526;SDS011;7350;51.208;4.238;2023-02-13T08:36:37;8.27;;;7.47;;
14526;SDS011;7350;51.208;4.238;2023-02-13T08:39:07;8.02;;;7.22;;
14526;SDS011;7350;51.208;4.238;2023-02-13T08:41:34;7.65;;;7.00;;
14526;SDS011;7350;51.208;4.238;2023-02-13T08:44:01;7.85;;;7.15;;
14526;SDS011;7350;51.208;4.238;2023-02-13T08:46:28;7.68;;;6.97;;
14526;SDS011;7350;51.208;4.238;2023-02-13T08:48:56;7.43;;;6.82;;
14526;SDS011;7350;51.208;4.238;2023-02-13T08:51:22;8.05;;;7.35;;
14526;SDS011;7350;51.208;4.238;2023-02-13T08:53:49;8.13;;;7.28;;
14526;SDS011;7350;51.208;4.238;2023-02-13T08:56:18;8.43;;;7.60;;
14526;SDS011;7350;51.208;4.238;2023-02-13T08:58:47;7.60;;;6.90;;
14526;SDS011;7350;51.208;4.238;2023-02-13T09:01:14;7.68;;;6.97;;
14526;SDS011;7350;51.208;4.238;2023-02-13T09:03:42;7.28;;;6.60;;
14526;SDS011;7350;51.208;4.238;2023-02-13T09:06:09;8.82;;;8.02;;
14526;SDS011;7350;51.208;4.238;2023-02-13T09:08:36;7.45;;;6.85;;
14526;SDS011;7350;51.208;4.238;2023-02-13T09:11:04;7.43;;;6.82;;
14526;SDS011;7350;51.208;4.238;2023-02-13T09:13:33;8.48;;;7.70;;
14526;SDS011;7350;51.208;4.238;2023-02-13T09:16:02;7.68;;;6.97;;
14526;SDS011;7350;51.208;4.238;2023-02-13T09:18:31;7.72;;;7.03;;
14526;SDS011;7350;51.208;4.238;2023-02-13T09:20:59;8.05;;;7.35;;
14526;SDS011;7350;51.208;4.238;2023-02-13T09:23:29;7.60;;;6.93;;
14526;SDS011;7350;51.208;4.238;2023-02-13T09:25:57;7.20;;;6.60;;
14526;SDS011;7350;51.208;4.238;2023-02-13T09:28:26;7.72;;;7.03;;
14526;SDS011;7350;51.208;4.238;2023-02-13T09:30:54;7.20;;;6.60;;
14526;SDS011;7350;51.208;4.238;2023-02-13T09:33:22;7.90;;;7.20;;
14526;SDS011;7350;51.208;4.238;2023-02-13T09:35:49;8.27;;;7.47;;
14526;SDS011;7350;51.208;4.238;2023-02-13T09:38:16;7.32;;;6.68;;
14526;SDS011;7350;51.208;4.238;2023-02-13T09:40:44;7.65;;;6.95;;
14526;SDS011;7350;51.208;4.238;2023-02-13T09:43:15;8.25;;;7.45;;
14526;SDS011;7350;51.208;4.238;2023-02-13T09:45:55;8.63;;;7.93;;
14526;SDS011;7350;51.208;4.238;2023-02-13T09:48:27;7.20;;;6.60;;
14526;SDS011;7350;51.208;4.238;2023-02-13T09:50:57;7.30;;;6.60;;
14526;SDS011;7350;51.208;4.238;2023-02-13T09:53:25;8.35;;;7.63;;
14526;SDS011;7350;51.208;4.238;2023-02-13T09:55:59;7.32;;;6.63;;
14526;SDS011;7350;51.208;4.238;2023-02-13T09:58:43;7.63;;;6.93;;
14526;SDS011;7350;51.208;4.238;2023-02-13T10:01:16;8.00;;;7.30;;
14526;SDS011;7350;51.208;4.238;2023-02-13T10:04:01;7.95;;;7.25;;
14526;SDS011;7350;51.208;4.238;2023-02-13T10:06:43;7.55;;;6.95;;
14526;SDS011;7350;51.208;4.238;2023-02-13T10:09:20;7.80;;;7.10;;
14526;SDS011;7350;51.208;4.238;2023-02-13T10:14:54;7.78;;;7.07;;
14526;SDS011;7350;51.208;4.238;2023-02-13T10:17:37;7.40;;;6.72;;
14526;SDS011;7350;51.208;4.238;2023-02-13T10:20:11;9.55;;;7.32;;
14526;SDS011;7350;51.208;4.238;2023-02-13T10:22:44;9.80;;;7.53;;
14526;SDS011;7350;51.208;4.238;2023-02-13T10:25:15;12.02;;;7.47;;
14526;SDS011;7350;51.208;4.238;2023-02-13T10:27:46;11.13;;;7.38;;
14526;SDS011;7350;51.208;4.238;2023-02-13T10:30:20;12.18;;;7.35;;
14526;SDS011;7350;51.208;4.238;2023-02-13T10:32:53;8.82;;;7.63;;
14526;SDS011;7350;51.208;4.238;2023-02-13T10:35:38;7.93;;;7.13;;
14526;SDS011;7350;51.208;4.238;2023-02-13T10:38:14;9.30;;;7.38;;
14526;SDS011;7350;51.208;4.238;2023-02-13T10:40:46;11.77;;;7.38;;
14526;SDS011;7350;51.208;4.238;2023-02-13T10:43:23;7.82;;;6.95;;
14526;SDS011;7350;51.208;4.238;2023-02-13T10:45:55;8.38;;;7.15;;
14526;SDS011;7350;51.208;4.238;2023-02-13T10:51:24;8.02;;;6.60;;
14526;SDS011;7350;51.208;4.238;2023-02-13T10:54:12;8.23;;;7.13;;
14526;SDS011;7350;51.208;4.238;2023-02-13T10:56:49;12.85;;;7.70;;
14526;SDS011;7350;51.208;4.238;2023-02-13T10:59:35;8.25;;;7.07;;
14526;SDS011;7350;51.208;4.238;2023-02-13T11:02:20;8.43;;;7.32;;
14526;SDS011;7350;51.208;4.238;2023-02-13T11:04:52;9.52;;;7.30;;
14526;SDS011;7350;51.208;4.238;2023-02-13T11:07:23;8.07;;;7.28;;
14526;SDS011;7350;51.208;4.238;2023-02-13T11:09:52;7.78;;;6.95;;
14526;SDS011;7350;51.208;4.238;2023-02-13T11:12:25;8.23;;;7.40;;
14526;SDS011;7350;51.208;4.238;2023-02-13T11:14:54;8.63;;;7.68;;
14526;SDS011;7350;51.208;4.238;2023-02-13T11:17:23;8.43;;;7.05;;
14526;SDS011;7350;51.208;4.238;2023-02-13T11:19:54;8.75;;;7.45;;
14526;SDS011;7350;51.208;4.238;2023-02-13T11:22:27;9.07;;;7.13;;
14526;SDS011;7350;51.208;4.238;2023-02-13T11:24:58;8.70;;;7.80;;
14526;SDS011;7350;51.208;4.238;2023-02-13T11:27:29;10.80;;;8.05;;
14526;SDS011;7350;51.208;4.238;2023-02-13T11:29:59;10.30;;;8.40;;
14526;SDS011;7350;51.208;4.238;2023-02-13T11:32:29;10.63;;;7.80;;
14526;SDS011;7350;51.208;4.238;2023-02-13T11:34:59;9.60;;;7.60;;
14526;SDS011;7350;51.208;4.238;2023-02-13T11:37:56;10.98;;;8.10;;
14526;SDS011;7350;51.208;4.238;2023-02-13T11:40:39;8.27;;;7.28;;
14526;SDS011;7350;51.208;4.238;2023-02-13T11:43:13;7.70;;;6.90;;
14526;SDS011;7350;51.208;4.238;2023-02-13T11:45:44;9.20;;;7.30;;
14526;SDS011;7350;51.208;4.238;2023-02-13T11:48:18;8.75;;;7.38;;
14526;SDS011;7350;51.208;4.238;2023-02-13T11:50:51;8.98;;;7.25;;
14526;SDS011;7350;51.208;4.238;2023-02-13T11:53:21;10.63;;;7.25;;
14526;SDS011;7350;51.208;4.238;2023-02-13T11:56:00;7.85;;;7.05;;
14526;SDS011;7350;51.208;4.238;2023-02-13T11:58:29;8.60;;;6.72;;
14526;SDS011;7350;51.208;4.238;2023-02-13T12:01:10;7.07;;;6.38;;
14526;SDS011;7350;51.208;4.238;2023-02-13T12:03:56;7.47;;;6.13;;
14526;SDS011;7350;51.208;4.238;2023-02-13T12:06:28;6.80;;;6.07;;
14526;SDS011;7350;51.208;4.238;2023-02-13T12:08:58;7.50;;;6.03;;
14526;SDS011;7350;51.208;4.238;2023-02-13T12:11:27;7.18;;;6.03;;
14526;SDS011;7350;51.208;4.238;2023-02-13T12:14:02;7.13;;;6.35;;
14526;SDS011;7350;51.208;4.238;2023-02-13T12:16:30;7.55;;;6.25;;
14526;SDS011;7350;51.208;4.238;2023-02-13T12:19:04;8.32;;;6.40;;
14526;SDS011;7350;51.208;4.238;2023-02-13T12:21:39;6.65;;;5.85;;
14526;SDS011;7350;51.208;4.238;2023-02-13T12:24:22;6.72;;;6.03;;
14526;SDS011;7350;51.208;4.238;2023-02-13T12:27:02;6.65;;;5.88;;
14526;SDS011;7350;51.208;4.238;2023-02-13T12:32:31;7.10;;;5.75;;
14526;SDS011;7350;51.208;4.238;2023-02-13T12:35:14;6.75;;;5.72;;
14526;SDS011;7350;51.208;4.238;2023-02-13T12:38:02;6.20;;;5.00;;
14526;SDS011;7350;51.208;4.238;2023-02-13T12:40:43;6.43;;;5.82;;
14526;SDS011;7350;51.208;4.238;2023-02-13T12:43:38;6.63;;;5.40;;
14526;SDS011;7350;51.208;4.238;2023-02-13T12:46:25;5.72;;;5.10;;
14526;SDS011;7350;51.208;4.238;2023-02-13T12:48:59;6.10;;;5.60;;
14526;SDS011;7350;51.208;4.238;2023-02-13T12:51:40;5.95;;;5.32;;
14526;SDS011;7350;51.208;4.238;2023-02-13T12:54:21;6.80;;;5.90;;
14526;SDS011;7350;51.208;4.238;2023-02-13T12:57:06;6.25;;;5.68;;
14526;SDS011;7350;51.208;4.238;2023-02-13T12:59:53;6.25;;;5.15;;
14526;SDS011;7350;51.208;4.238;2023-02-13T13:02:42;6.45;;;5.30;;
14526;SDS011;7350;51.208;4.238;2023-02-13T13:05:31;6.95;;;4.95;;
14526;SDS011;7350;51.208;4.238;2023-02-13T13:08:12;6.10;;;5.13;;
14526;SDS011;7350;51.208;4.238;2023-02-13T13:10:53;5.63;;;5.05;;
14526;SDS011;7350;51.208;4.238;2023-02-13T13:13:34;5.95;;;4.97;;
14526;SDS011;7350;51.208;4.238;2023-02-13T13:16:12;5.57;;;5.03;;
14526;SDS011;7350;51.208;4.238;2023-02-13T13:18:48;5.90;;;5.40;;
14526;SDS011;7350;51.208;4.238;2023-02-13T13:21:25;5.70;;;5.18;;
14526;SDS011;7350;51.208;4.238;2023-02-13T13:24:04;6.32;;;5.22;;
14526;SDS011;7350;51.208;4.238;2023-02-13T13:26:40;4.90;;;4.50;;
14526;SDS011;7350;51.208;4.238;2023-02-13T13:29:11;5.93;;;5.32;;
14526;SDS011;7350;51.208;4.238;2023-02-13T13:31:42;5.20;;;4.70;;
14526;SDS011;7350;51.208;4.238;2023-02-13T13:34:16;5.30;;;4.80;;
14526;SDS011;7350;51.208;4.238;2023-02-13T13:36:50;6.07;;;5.10;;
14526;SDS011;7350;51.208;4.238;2023-02-13T13:39:25;4.95;;;4.55;;
14526;SDS011;7350;51.208;4.238;2023-02-13T13:42:06;5.15;;;4.57;;
14526;SDS011;7350;51.208;4.238;2023-02-13T13:44:52;5.10;;;4.60;;
14526;SDS011;7350;51.208;4.238;2023-02-13T13:47:39;7.75;;;4.82;;
14526;SDS011;7350;51.208;4.238;2023-02-13T13:50:19;5.45;;;4.63;;
14526;SDS011;7350;51.208;4.238;2023-02-13T13:53:05;5.05;;;4.55;;
14526;SDS011;7350;51.208;4.238;2023-02-13T13:58:41;7.22;;;4.03;;
14526;SDS011;7350;51.208;4.238;2023-02-13T14:01:15;5.40;;;4.47;;
14526;SDS011;7350;51.208;4.238;2023-02-13T14:03:47;5.03;;;4.15;;
14526;SDS011;7350;51.208;4.238;2023-02-13T14:06:16;5.13;;;4.45;;
14526;SDS011;7350;51.208;4.238;2023-02-13T14:08:54;4.68;;;3.95;;
14526;SDS011;7350;51.208;4.238;2023-02-13T14:17:45;4.57;;;3.90;;
14526;SDS011;7350;51.208;4.238;2023-02-13T14:23:21;4.28;;;3.88;;
14526;SDS011;7350;51.208;4.238;2023-02-13T14:26:18;4.30;;;3.90;;
14526;SDS011;7350;51.208;4.238;2023-02-13T14:29:16;4.82;;;4.32;;
14526;SDS011;7350;51.208;4.238;2023-02-13T14:32:04;3.90;;;3.55;;
14526;SDS011;7350;51.208;4.238;2023-02-13T14:34:41;5.50;;;3.80;;
14526;SDS011;7350;51.208;4.238;2023-02-13T14:37:17;5.45;;;3.92;;
14526;SDS011;7350;51.208;4.238;2023-02-13T14:40:25;3.90;;;3.60;;
14526;SDS011;7350;51.208;4.238;2023-02-13T14:42:57;4.53;;;3.92;;
14526;SDS011;7350;51.208;4.238;2023-02-13T14:45:39;6.00;;;3.88;;
14526;SDS011;7350;51.208;4.238;2023-02-13T14:48:13;3.78;;;3.20;;
14526;SDS011;7350;51.208;4.238;2023-02-13T14:50:44;4.82;;;3.70;;
14526;SDS011;7350;51.208;4.238;2023-02-13T14:53:15;4.28;;;3.33;;
14526;SDS011;7350;51.208;4.238;2023-02-13T14:55:47;5.22;;;3.70;;
14526;SDS011;7350;51.208;4.238;2023-02-13T14:58:22;4.85;;;3.75;;
14526;SDS011;7350;51.208;4.238;2023-02-13T15:00:52;4.32;;;3.35;;
14526;SDS011;7350;51.208;4.238;2023-02-13T15:03:23;4.97;;;3.22;;
14526;SDS011;7350;51.208;4.238;2023-02-13T15:05:55;9.52;;;3.45;;
14526;SDS011;7350;51.208;4.238;2023-02-13T15:08:25;5.47;;;3.80;;
14526;SDS011;7350;51.208;4.238;2023-02-13T15:10:56;6.95;;;3.15;;
14526;SDS011;7350;51.208;4.238;2023-02-13T15:13:24;5.20;;;3.50;;
14526;SDS011;7350;51.208;4.238;2023-02-13T15:15:57;7.07;;;3.80;;
14526;SDS011;7350;51.208;4.238;2023-02-13T15:18:28;5.35;;;3.42;;
14526;SDS011;7350;51.208;4.238;2023-02-13T15:21:00;4.65;;;3.30;;
14526;SDS011;7350;51.208;4.238;2023-02-13T15:23:28;5.15;;;3.80;;
14526;SDS011;7350;51.208;4.238;2023-02-13T15:25:56;6.65;;;3.83;;
14526;SDS011;7350;51.208;4.238;2023-02-13T15:28:25;5.55;;;3.75;;
14526;SDS011;7350;51.208;4.238;2023-02-13T15:30:53;5.80;;;3.70;;
14526;SDS011;7350;51.208;4.238;2023-02-13T15:33:22;6.22;;;3.40;;
14526;SDS011;7350;51.208;4.238;2023-02-13T15:35:54;4.45;;;3.50;;
14526;SDS011;7350;51.208;4.238;2023-02-13T15:38:25;4.88;;;3.70;;
14526;SDS011;7350;51.208;4.238;2023-02-13T15:40:54;4.50;;;3.35;;
14526;SDS011;7350;51.208;4.238;2023-02-13T15:43:26;4.63;;;3.08;;
14526;SDS011;7350;51.208;4.238;2023-02-13T15:45:59;5.72;;;3.83;;